sensor_id;sensor_type;location;lat;lon;timestamp;P1;durP1;ratioP1;P2;durP2;ratioP2
9324;SDS011;4701;51.566;6.776;2022-07-29T05:03:10;9.53;;;4.47;;
9324;SDS011;4701;51.566;6.776;2022-07-29T05:05:12;6.13;;;3.77;;
9324;SDS011;4701;51.566;6.776;2022-07-29T05:07:13;6.83;;;3.83;;
9324;SDS011;4701;51.566;6.776;2022-07-29T05:09:15;8.23;;;3.57;;
9324;SDS011;4701;51.566;6.776;2022-07-29T05:11:17;6.37;;;3.50;;
9324;SDS011;4701;51.566;6.776;2022-07-29T05:13:19;6.07;;;3.37;;
9324;SDS011;4701;51.566;6.776;2022-07-29T05:15:20;8.90;;;3.47;;
9324;SDS011;4701;51.566;6.776;2022-07-29T05:17:22;5.37;;;3.23;;
9324;SDS011;4701;51.566;6.776;2022-07-29T05:19:25;7.23;;;3.40;;
9324;SDS011;4701;51.566;6.776;2022-07-29T05:21:27;6.40;;;3.90;;
9324;SDS011;4701;51.566;6.776;2022-07-29T05:23:29;4.93;;;3.70;;
9324;SDS011;4701;51.566;6.776;2022-07-29T05:25:31;7.60;;;3.70;;
9324;SDS011;4701;51.566;6.776;2022-07-29T05:27:33;6.33;;;3.10;;
9324;SDS011;4701;51.566;6.776;2022-07-29T05:29:34;6.43;;;3.67;;
9324;SDS011;4701;51.566;6.776;2022-07-29T05:31:36;7.10;;;3.53;;
9324;SDS011;4701;51.566;6.776;2022-07-29T05:33:38;4.10;;;3.40;;
9324;SDS011;4701;51.566;6.776;2022-07-29T05:35:41;7.30;;;3.70;;
9324;SDS011;4701;51.566;6.776;2022-07-29T05:37:43;7.83;;;4.67;;
9324;SDS011;4701;51.566;6.776;2022-07-29T05:39:45;7.63;;;3.90;;
9324;SDS011;4701;51.566;6.776;2022-07-29T05:41:50;6.23;;;4.00;;
9324;SDS011;4701;51.566;6.776;2022-07-29T05:43:51;7.23;;;5.03;;
9324;SDS011;4701;51.566;6.776;2022-07-29T05:45:53;7.33;;;3.77;;
9324;SDS011;4701;51.566;6.776;2022-07-29T05:47:55;5.07;;;4.13;;
9324;SDS011;4701;51.566;6.776;2022-07-29T05:49:57;5.77;;;4.10;;
9324;SDS011;4701;51.566;6.776;2022-07-29T05:52:00;7.03;;;4.43;;
9324;SDS011;4701;51.566;6.776;2022-07-29T05:54:02;7.27;;;4.40;;
9324;SDS011;4701;51.566;6.776;2022-07-29T05:56:04;7.50;;;4.67;;
9324;SDS011;4701;51.566;6.776;2022-07-29T05:58:07;5.67;;;4.43;;
9324;SDS011;4701;51.566;6.776;2022-07-29T06:00:09;6.97;;;4.73;;
9324;SDS011;4701;51.566;6.776;2022-07-29T06:02:15;6.47;;;4.40;;
9324;SDS011;4701;51.566;6.776;2022-07-29T06:04:17;5.87;;;4.53;;
9324;SDS011;4701;51.566;6.776;2022-07-29T06:06:19;6.70;;;5.10;;
9324;SDS011;4701;51.566;6.776;2022-07-29T06:08:23;6.97;;;4.67;;
9324;SDS011;4701;51.566;6.776;2022-07-29T06:10:24;6.40;;;4.93;;
9324;SDS011;4701;51.566;6.776;2022-07-29T06:12:27;8.47;;;5.50;;
9324;SDS011;4701;51.566;6.776;2022-07-29T06:14:28;7.23;;;4.83;;
9324;SDS011;4701;51.566;6.776;2022-07-29T06:16:30;7.07;;;4.97;;
9324;SDS011;4701;51.566;6.776;2022-07-29T06:18:32;7.30;;;5.23;;
9324;SDS011;4701;51.566;6.776;2022-07-29T06:20:34;5.13;;;4.63;;
9324;SDS011;4701;51.566;6.776;2022-07-29T06:22:36;5.97;;;5.30;;
9324;SDS011;4701;51.566;6.776;2022-07-29T06:24:39;4.53;;;4.13;;
9324;SDS011;4701;51.566;6.776;2022-07-29T06:26:44;5.87;;;5.40;;
9324;SDS011;4701;51.566;6.776;2022-07-29T06:28:46;11.10;;;5.57;;
9324;SDS011;4701;51.566;6.776;2022-07-29T06:30:48;8.83;;;6.40;;
9324;SDS011;4701;51.566;6.776;2022-07-29T06:32:49;6.17;;;5.43;;
9324;SDS011;4701;51.566;6.776;2022-07-29T06:34:52;7.37;;;5.67;;
9324;SDS011;4701;51.566;6.776;2022-07-29T06:36:53;9.63;;;5.37;;
9324;SDS011;4701;51.566;6.776;2022-07-29T06:38:55;10.13;;;6.13;;
9324;SDS011;4701;51.566;6.776;2022-07-29T06:40:59;13.67;;;6.23;;
9324;SDS011;4701;51.566;6.776;2022-07-29T06:43:00;9.07;;;5.30;;
9324;SDS011;4701;51.566;6.776;2022-07-29T06:45:02;9.90;;;4.67;;
9324;SDS011;4701;51.566;6.776;2022-07-29T06:47:04;7.00;;;4.87;;
9324;SDS011;4701;51.566;6.776;2022-07-29T06:49:06;10.07;;;5.10;;
9324;SDS011;4701;51.566;6.776;2022-07-29T06:51:08;5.20;;;4.70;;
9324;SDS011;4701;51.566;6.776;2022-07-29T06:53:11;6.13;;;4.67;;
9324;SDS011;4701;51.566;6.776;2022-07-29T06:55:13;6.33;;;4.87;;
9324;SDS011;4701;51.566;6.776;2022-07-29T06:57:16;5.37;;;4.87;;
9324;SDS011;4701;51.566;6.776;2022-07-29T06:59:18;6.97;;;5.37;;
9324;SDS011;4701;51.566;6.776;2022-07-29T07:01:20;7.40;;;5.83;;
9324;SDS011;4701;51.566;6.776;2022-07-29T07:03:22;7.93;;;5.33;;
9324;SDS011;4701;51.566;6.776;2022-07-29T07:05:24;5.83;;;4.90;;
9324;SDS011;4701;51.566;6.776;2022-07-29T07:07:26;5.87;;;4.90;;
9324;SDS011;4701;51.566;6.776;2022-07-29T07:09:28;9.07;;;5.80;;
9324;SDS011;4701;51.566;6.776;2022-07-29T07:11:30;9.77;;;5.13;;
9324;SDS011;4701;51.566;6.776;2022-07-29T07:13:33;6.63;;;4.33;;
9324;SDS011;4701;51.566;6.776;2022-07-29T07:15:35;7.20;;;4.60;;
9324;SDS011;4701;51.566;6.776;2022-07-29T07:17:37;7.60;;;4.87;;
9324;SDS011;4701;51.566;6.776;2022-07-29T07:19:39;7.00;;;4.90;;
9324;SDS011;4701;51.566;6.776;2022-07-29T07:21:41;5.30;;;4.80;;
9324;SDS011;4701;51.566;6.776;2022-07-29T07:23:43;6.90;;;6.17;;
9324;SDS011;4701;51.566;6.776;2022-07-29T07:25:44;8.80;;;5.10;;
9324;SDS011;4701;51.566;6.776;2022-07-29T07:27:46;6.37;;;5.20;;
9324;SDS011;4701;51.566;6.776;2022-07-29T07:29:50;6.27;;;5.27;;
9324;SDS011;4701;51.566;6.776;2022-07-29T07:31:51;5.20;;;4.70;;
9324;SDS011;4701;51.566;6.776;2022-07-29T07:33:53;6.90;;;5.30;;
9324;SDS011;4701;51.566;6.776;2022-07-29T07:35:56;8.80;;;6.23;;
9324;SDS011;4701;51.566;6.776;2022-07-29T07:37:58;9.90;;;6.87;;
9324;SDS011;4701;51.566;6.776;2022-07-29T07:40:00;8.77;;;6.43;;
9324;SDS011;4701;51.566;6.776;2022-07-29T07:42:02;8.90;;;7.33;;
9324;SDS011;4701;51.566;6.776;2022-07-29T07:44:04;8.47;;;6.13;;
9324;SDS011;4701;51.566;6.776;2022-07-29T07:46:08;7.33;;;5.20;;
9324;SDS011;4701;51.566;6.776;2022-07-29T07:48:09;9.70;;;6.07;;
9324;SDS011;4701;51.566;6.776;2022-07-29T07:50:11;6.63;;;5.60;;
9324;SDS011;4701;51.566;6.776;2022-07-29T07:52:13;8.87;;;6.30;;
9324;SDS011;4701;51.566;6.776;2022-07-29T07:54:16;7.93;;;6.63;;
9324;SDS011;4701;51.566;6.776;2022-07-29T07:56:18;8.73;;;6.10;;
9324;SDS011;4701;51.566;6.776;2022-07-29T07:58:20;11.67;;;6.83;;
9324;SDS011;4701;51.566;6.776;2022-07-29T08:00:22;7.93;;;6.37;;
9324;SDS011;4701;51.566;6.776;2022-07-29T08:02:26;9.70;;;6.90;;
9324;SDS011;4701;51.566;6.776;2022-07-29T08:04:28;8.83;;;6.37;;
9324;SDS011;4701;51.566;6.776;2022-07-29T08:06:30;11.67;;;7.23;;
9324;SDS011;4701;51.566;6.776;2022-07-29T08:08:31;9.47;;;6.30;;
9324;SDS011;4701;51.566;6.776;2022-07-29T08:10:33;9.40;;;7.07;;
9324;SDS011;4701;51.566;6.776;2022-07-29T08:12:53;7.67;;;5.87;;
9324;SDS011;4701;51.566;6.776;2022-07-29T08:14:55;7.57;;;6.77;;
9324;SDS011;4701;51.566;6.776;2022-07-29T08:16:57;8.37;;;6.10;;
9324;SDS011;4701;51.566;6.776;2022-07-29T08:19:00;8.40;;;5.90;;
9324;SDS011;4701;51.566;6.776;2022-07-29T08:21:02;7.33;;;6.00;;
9324;SDS011;4701;51.566;6.776;2022-07-29T08:23:04;10.13;;;6.17;;
9324;SDS011;4701;51.566;6.776;2022-07-29T08:25:08;9.00;;;6.20;;
9324;SDS011;4701;51.566;6.776;2022-07-29T08:27:10;7.77;;;5.93;;
9324;SDS011;4701;51.566;6.776;2022-07-29T08:29:12;6.17;;;5.57;;
9324;SDS011;4701;51.566;6.776;2022-07-29T08:31:14;7.70;;;7.00;;
9324;SDS011;4701;51.566;6.776;2022-07-29T08:33:17;8.93;;;6.57;;
9324;SDS011;4701;51.566;6.776;2022-07-29T08:35:21;7.20;;;6.23;;
9324;SDS011;4701;51.566;6.776;2022-07-29T08:37:23;9.60;;;6.43;;
9324;SDS011;4701;51.566;6.776;2022-07-29T08:39:25;7.40;;;6.10;;
9324;SDS011;4701;51.566;6.776;2022-07-29T08:41:27;7.77;;;6.93;;
9324;SDS011;4701;51.566;6.776;2022-07-29T08:43:29;8.03;;;7.03;;
9324;SDS011;4701;51.566;6.776;2022-07-29T08:45:35;9.13;;;6.93;;
9324;SDS011;4701;51.566;6.776;2022-07-29T08:47:44;9.00;;;7.13;;
9324;SDS011;4701;51.566;6.776;2022-07-29T08:49:46;8.53;;;7.63;;
9324;SDS011;4701;51.566;6.776;2022-07-29T08:51:50;7.57;;;6.87;;
9324;SDS011;4701;51.566;6.776;2022-07-29T08:53:53;9.97;;;7.00;;
9324;SDS011;4701;51.566;6.776;2022-07-29T08:55:56;8.20;;;7.40;;
9324;SDS011;4701;51.566;6.776;2022-07-29T08:57:59;11.27;;;7.43;;
9324;SDS011;4701;51.566;6.776;2022-07-29T09:00:03;8.30;;;7.50;;
9324;SDS011;4701;51.566;6.776;2022-07-29T09:02:07;8.50;;;6.87;;
9324;SDS011;4701;51.566;6.776;2022-07-29T09:04:20;7.63;;;6.83;;
9324;SDS011;4701;51.566;6.776;2022-07-29T09:06:26;9.97;;;8.20;;
9324;SDS011;4701;51.566;6.776;2022-07-29T09:08:34;7.53;;;6.73;;
9324;SDS011;4701;51.566;6.776;2022-07-29T09:10:36;7.70;;;6.67;;
9324;SDS011;4701;51.566;6.776;2022-07-29T09:12:38;9.20;;;7.60;;
9324;SDS011;4701;51.566;6.776;2022-07-29T09:14:40;8.13;;;7.33;;
9324;SDS011;4701;51.566;6.776;2022-07-29T09:16:46;9.33;;;7.33;;
9324;SDS011;4701;51.566;6.776;2022-07-29T09:18:49;9.63;;;7.43;;
9324;SDS011;4701;51.566;6.776;2022-07-29T09:20:51;9.73;;;7.83;;
9324;SDS011;4701;51.566;6.776;2022-07-29T09:23:12;9.40;;;6.40;;
9324;SDS011;4701;51.566;6.776;2022-07-29T09:25:32;9.10;;;5.97;;
9324;SDS011;4701;51.566;6.776;2022-07-29T09:27:35;7.93;;;6.23;;
9324;SDS011;4701;51.566;6.776;2022-07-29T09:29:37;7.93;;;5.73;;
9324;SDS011;4701;51.566;6.776;2022-07-29T09:31:39;9.70;;;6.17;;
9324;SDS011;4701;51.566;6.776;2022-07-29T09:33:42;8.60;;;6.47;;
9324;SDS011;4701;51.566;6.776;2022-07-29T09:35:44;7.03;;;6.33;;
9324;SDS011;4701;51.566;6.776;2022-07-29T09:37:46;7.40;;;6.43;;
9324;SDS011;4701;51.566;6.776;2022-07-29T09:39:49;10.77;;;6.43;;
9324;SDS011;4701;51.566;6.776;2022-07-29T09:41:53;8.90;;;6.80;;
9324;SDS011;4701;51.566;6.776;2022-07-29T09:43:57;9.33;;;5.93;;
9324;SDS011;4701;51.566;6.776;2022-07-29T09:46:09;9.50;;;6.63;;
9324;SDS011;4701;51.566;6.776;2022-07-29T09:48:15;9.70;;;6.23;;
9324;SDS011;4701;51.566;6.776;2022-07-29T09:50:18;6.80;;;6.07;;
9324;SDS011;4701;51.566;6.776;2022-07-29T09:52:24;7.40;;;5.97;;
9324;SDS011;4701;51.566;6.776;2022-07-29T09:54:27;10.20;;;7.13;;
9324;SDS011;4701;51.566;6.776;2022-07-29T09:56:40;5.83;;;5.20;;
9324;SDS011;4701;51.566;6.776;2022-07-29T09:58:45;5.87;;;5.17;;
9324;SDS011;4701;51.566;6.776;2022-07-29T10:00:47;8.27;;;6.03;;
9324;SDS011;4701;51.566;6.776;2022-07-29T10:02:50;9.53;;;5.67;;
9324;SDS011;4701;51.566;6.776;2022-07-29T10:04:52;7.77;;;5.60;;
9324;SDS011;4701;51.566;6.776;2022-07-29T10:06:57;8.83;;;5.50;;
9324;SDS011;4701;51.566;6.776;2022-07-29T10:09:07;6.97;;;5.67;;
9324;SDS011;4701;51.566;6.776;2022-07-29T10:11:10;6.07;;;5.47;;
9324;SDS011;4701;51.566;6.776;2022-07-29T10:13:13;10.07;;;5.60;;
9324;SDS011;4701;51.566;6.776;2022-07-29T10:15:17;8.53;;;5.63;;
9324;SDS011;4701;51.566;6.776;2022-07-29T10:17:19;7.33;;;5.20;;
9324;SDS011;4701;51.566;6.776;2022-07-29T10:19:23;8.23;;;5.07;;
9324;SDS011;4701;51.566;6.776;2022-07-29T10:21:25;9.83;;;5.23;;
9324;SDS011;4701;51.566;6.776;2022-07-29T10:23:27;7.50;;;4.83;;
9324;SDS011;4701;51.566;6.776;2022-07-29T10:25:30;8.17;;;4.77;;
9324;SDS011;4701;51.566;6.776;2022-07-29T10:27:32;7.90;;;5.00;;
9324;SDS011;4701;51.566;6.776;2022-07-29T10:29:34;5.93;;;4.93;;
9324;SDS011;4701;51.566;6.776;2022-07-29T10:31:39;6.77;;;5.10;;
9324;SDS011;4701;51.566;6.776;2022-07-29T10:33:52;10.63;;;5.13;;
9324;SDS011;4701;51.566;6.776;2022-07-29T10:36:15;10.70;;;5.93;;
9324;SDS011;4701;51.566;6.776;2022-07-29T10:38:45;8.20;;;4.47;;
9324;SDS011;4701;51.566;6.776;2022-07-29T10:40:54;9.83;;;5.23;;
9324;SDS011;4701;51.566;6.776;2022-07-29T10:43:29;5.97;;;4.03;;
9324;SDS011;4701;51.566;6.776;2022-07-29T10:45:36;7.30;;;4.33;;
9324;SDS011;4701;51.566;6.776;2022-07-29T10:47:39;5.70;;;4.00;;
9324;SDS011;4701;51.566;6.776;2022-07-29T10:49:41;5.27;;;4.13;;
9324;SDS011;4701;51.566;6.776;2022-07-29T10:51:58;7.40;;;3.90;;
9324;SDS011;4701;51.566;6.776;2022-07-29T10:54:01;6.87;;;4.03;;
9324;SDS011;4701;51.566;6.776;2022-07-29T10:56:05;8.07;;;4.40;;
9324;SDS011;4701;51.566;6.776;2022-07-29T10:58:26;6.50;;;4.43;;
9324;SDS011;4701;51.566;6.776;2022-07-29T11:00:29;6.07;;;4.80;;
9324;SDS011;4701;51.566;6.776;2022-07-29T11:02:44;5.20;;;4.30;;
9324;SDS011;4701;51.566;6.776;2022-07-29T11:05:00;8.43;;;4.43;;
9324;SDS011;4701;51.566;6.776;2022-07-29T11:07:07;9.80;;;4.33;;
9324;SDS011;4701;51.566;6.776;2022-07-29T11:09:15;4.40;;;4.00;;
9324;SDS011;4701;51.566;6.776;2022-07-29T11:13:47;5.53;;;4.83;;
9324;SDS011;4701;51.566;6.776;2022-07-29T11:15:52;6.23;;;4.67;;
9324;SDS011;4701;51.566;6.776;2022-07-29T11:18:05;7.50;;;4.70;;
9324;SDS011;4701;51.566;6.776;2022-07-29T11:22:35;7.63;;;5.00;;
9324;SDS011;4701;51.566;6.776;2022-07-29T11:24:37;6.97;;;4.83;;
9324;SDS011;4701;51.566;6.776;2022-07-29T11:26:39;9.53;;;5.10;;
9324;SDS011;4701;51.566;6.776;2022-07-29T11:28:48;5.73;;;4.63;;
9324;SDS011;4701;51.566;6.776;2022-07-29T11:30:54;6.50;;;4.80;;
9324;SDS011;4701;51.566;6.776;2022-07-29T11:32:56;5.13;;;4.00;;
9324;SDS011;4701;51.566;6.776;2022-07-29T11:35:13;6.27;;;4.50;;
9324;SDS011;4701;51.566;6.776;2022-07-29T11:37:18;5.47;;;4.90;;
9324;SDS011;4701;51.566;6.776;2022-07-29T11:39:26;7.00;;;5.87;;
9324;SDS011;4701;51.566;6.776;2022-07-29T11:41:29;8.53;;;6.43;;
9324;SDS011;4701;51.566;6.776;2022-07-29T11:43:48;14.33;;;13.00;;
9324;SDS011;4701;51.566;6.776;2022-07-29T11:45:51;9.10;;;5.90;;
9324;SDS011;4701;51.566;6.776;2022-07-29T11:47:55;8.70;;;5.70;;
9324;SDS011;4701;51.566;6.776;2022-07-29T11:50:00;7.33;;;5.27;;
9324;SDS011;4701;51.566;6.776;2022-07-29T11:52:04;13.10;;;4.77;;
9324;SDS011;4701;51.566;6.776;2022-07-29T11:54:07;7.83;;;5.60;;
9324;SDS011;4701;51.566;6.776;2022-07-29T11:56:15;7.13;;;5.17;;
9324;SDS011;4701;51.566;6.776;2022-07-29T11:58:22;6.73;;;5.30;;
9324;SDS011;4701;51.566;6.776;2022-07-29T12:00:27;6.43;;;5.10;;
9324;SDS011;4701;51.566;6.776;2022-07-29T12:02:40;9.67;;;5.30;;
9324;SDS011;4701;51.566;6.776;2022-07-29T12:04:49;8.47;;;5.47;;
9324;SDS011;4701;51.566;6.776;2022-07-29T12:06:52;10.40;;;5.70;;
9324;SDS011;4701;51.566;6.776;2022-07-29T12:08:56;8.17;;;5.57;;
9324;SDS011;4701;51.566;6.776;2022-07-29T12:10:58;8.07;;;5.57;;
9324;SDS011;4701;51.566;6.776;2022-07-29T12:13:00;7.43;;;5.97;;
9324;SDS011;4701;51.566;6.776;2022-07-29T12:15:10;7.87;;;5.93;;
9324;SDS011;4701;51.566;6.776;2022-07-29T12:17:26;6.90;;;5.10;;
9324;SDS011;4701;51.566;6.776;2022-07-29T12:19:29;9.47;;;5.67;;
9324;SDS011;4701;51.566;6.776;2022-07-29T12:21:44;6.97;;;5.00;;
9324;SDS011;4701;51.566;6.776;2022-07-29T12:23:52;6.03;;;4.97;;
9324;SDS011;4701;51.566;6.776;2022-07-29T12:25:57;5.50;;;4.57;;
9324;SDS011;4701;51.566;6.776;2022-07-29T12:28:00;7.63;;;4.73;;
9324;SDS011;4701;51.566;6.776;2022-07-29T12:30:04;9.33;;;4.63;;
9324;SDS011;4701;51.566;6.776;2022-07-29T12:32:07;5.50;;;4.60;;
9324;SDS011;4701;51.566;6.776;2022-07-29T12:34:10;6.73;;;4.43;;
9324;SDS011;4701;51.566;6.776;2022-07-29T12:36:13;8.37;;;3.80;;
9324;SDS011;4701;51.566;6.776;2022-07-29T12:38:15;5.33;;;4.57;;
9324;SDS011;4701;51.566;6.776;2022-07-29T12:40:17;6.30;;;4.50;;
9324;SDS011;4701;51.566;6.776;2022-07-29T12:42:24;9.47;;;4.57;;
9324;SDS011;4701;51.566;6.776;2022-07-29T12:44:39;7.70;;;4.03;;
9324;SDS011;4701;51.566;6.776;2022-07-29T12:46:45;8.27;;;3.97;;
9324;SDS011;4701;51.566;6.776;2022-07-29T12:48:50;6.30;;;4.20;;
9324;SDS011;4701;51.566;6.776;2022-07-29T12:50:55;6.77;;;4.10;;
9324;SDS011;4701;51.566;6.776;2022-07-29T12:53:08;5.30;;;4.00;;
9324;SDS011;4701;51.566;6.776;2022-07-29T12:55:11;6.60;;;3.57;;
9324;SDS011;4701;51.566;6.776;2022-07-29T12:57:13;8.30;;;4.43;;
9324;SDS011;4701;51.566;6.776;2022-07-29T12:59:16;8.27;;;4.27;;
9324;SDS011;4701;51.566;6.776;2022-07-29T13:01:20;6.30;;;3.73;;
9324;SDS011;4701;51.566;6.776;2022-07-29T13:03:22;9.20;;;3.47;;
9324;SDS011;4701;51.566;6.776;2022-07-29T13:05:31;8.50;;;4.13;;
9324;SDS011;4701;51.566;6.776;2022-07-29T13:07:40;6.73;;;3.70;;
9324;SDS011;4701;51.566;6.776;2022-07-29T13:09:43;6.30;;;3.27;;
9324;SDS011;4701;51.566;6.776;2022-07-29T13:11:48;6.20;;;3.20;;
9324;SDS011;4701;51.566;6.776;2022-07-29T13:13:51;5.80;;;3.40;;
9324;SDS011;4701;51.566;6.776;2022-07-29T13:16:06;4.97;;;3.20;;
9324;SDS011;4701;51.566;6.776;2022-07-29T13:20:29;6.40;;;3.30;;
9324;SDS011;4701;51.566;6.776;2022-07-29T13:22:31;7.07;;;3.60;;
9324;SDS011;4701;51.566;6.776;2022-07-29T13:24:33;8.73;;;3.77;;
9324;SDS011;4701;51.566;6.776;2022-07-29T13:26:39;3.57;;;3.10;;
9324;SDS011;4701;51.566;6.776;2022-07-29T13:28:41;5.37;;;3.27;;
9324;SDS011;4701;51.566;6.776;2022-07-29T13:30:43;3.47;;;3.17;;
9324;SDS011;4701;51.566;6.776;2022-07-29T13:32:46;5.63;;;4.00;;
9324;SDS011;4701;51.566;6.776;2022-07-29T13:34:48;5.33;;;4.03;;
9324;SDS011;4701;51.566;6.776;2022-07-29T13:36:50;7.30;;;4.00;;
9324;SDS011;4701;51.566;6.776;2022-07-29T13:38:52;7.27;;;4.27;;
9324;SDS011;4701;51.566;6.776;2022-07-29T13:40:54;8.17;;;3.83;;
9324;SDS011;4701;51.566;6.776;2022-07-29T13:42:56;6.17;;;3.70;;
9324;SDS011;4701;51.566;6.776;2022-07-29T13:44:58;6.00;;;3.17;;
9324;SDS011;4701;51.566;6.776;2022-07-29T13:47:00;5.87;;;3.20;;
9324;SDS011;4701;51.566;6.776;2022-07-29T13:49:03;6.37;;;3.40;;
9324;SDS011;4701;51.566;6.776;2022-07-29T13:51:05;8.03;;;3.17;;
9324;SDS011;4701;51.566;6.776;2022-07-29T13:53:07;5.47;;;3.13;;
9324;SDS011;4701;51.566;6.776;2022-07-29T13:55:09;10.53;;;2.90;;
9324;SDS011;4701;51.566;6.776;2022-07-29T13:57:11;6.17;;;2.97;;
9324;SDS011;4701;51.566;6.776;2022-07-29T13:59:14;8.33;;;3.00;;
9324;SDS011;4701;51.566;6.776;2022-07-29T14:01:16;8.00;;;3.40;;
9324;SDS011;4701;51.566;6.776;2022-07-29T14:03:18;5.30;;;2.83;;
9324;SDS011;4701;51.566;6.776;2022-07-29T14:05:21;6.97;;;2.93;;
9324;SDS011;4701;51.566;6.776;2022-07-29T14:07:23;5.80;;;3.20;;
9324;SDS011;4701;51.566;6.776;2022-07-29T14:09:25;5.67;;;3.53;;
9324;SDS011;4701;51.566;6.776;2022-07-29T14:11:26;6.67;;;3.33;;
9324;SDS011;4701;51.566;6.776;2022-07-29T14:13:28;6.17;;;3.07;;
9324;SDS011;4701;51.566;6.776;2022-07-29T14:15:30;4.53;;;3.33;;
9324;SDS011;4701;51.566;6.776;2022-07-29T14:17:32;5.50;;;3.40;;
9324;SDS011;4701;51.566;6.776;2022-07-29T14:19:34;7.05;;;3.80;;
9324;SDS011;4701;51.566;6.776;2022-07-29T14:21:39;9.35;;;3.17;;
9324;SDS011;4701;51.566;6.776;2022-07-29T14:23:41;4.82;;;3.50;;
9324;SDS011;4701;51.566;6.776;2022-07-29T14:25:43;6.72;;;3.22;;
9324;SDS011;4701;51.566;6.776;2022-07-29T14:27:45;4.35;;;3.50;;
9324;SDS011;4701;51.566;6.776;2022-07-29T14:29:47;10.00;;;3.53;;
9324;SDS011;4701;51.566;6.776;2022-07-29T14:31:49;5.22;;;3.15;;
9324;SDS011;4701;51.566;6.776;2022-07-29T14:33:51;5.05;;;3.33;;
9324;SDS011;4701;51.566;6.776;2022-07-29T14:35:53;6.47;;;2.80;;
9324;SDS011;4701;51.566;6.776;2022-07-29T14:37:56;7.88;;;3.17;;
9324;SDS011;4701;51.566;6.776;2022-07-29T14:39:58;10.02;;;3.55;;
9324;SDS011;4701;51.566;6.776;2022-07-29T14:42:04;7.20;;;3.33;;
9324;SDS011;4701;51.566;6.776;2022-07-29T14:44:06;4.00;;;2.97;;
9324;SDS011;4701;51.566;6.776;2022-07-29T14:46:08;6.07;;;2.70;;
9324;SDS011;4701;51.566;6.776;2022-07-29T14:48:10;5.25;;;3.10;;
9324;SDS011;4701;51.566;6.776;2022-07-29T14:50:12;11.20;;;6.70;;
9324;SDS011;4701;51.566;6.776;2022-07-29T14:52:14;3.97;;;3.00;;
9324;SDS011;4701;51.566;6.776;2022-07-29T14:54:18;5.47;;;3.47;;
9324;SDS011;4701;51.566;6.776;2022-07-29T14:56:20;4.78;;;3.35;;
9324;SDS011;4701;51.566;6.776;2022-07-29T14:58:22;5.72;;;2.90;;
9324;SDS011;4701;51.566;6.776;2022-07-29T15:00:23;6.18;;;3.40;;
9324;SDS011;4701;51.566;6.776;2022-07-29T15:02:26;7.15;;;2.78;;
9324;SDS011;4701;51.566;6.776;2022-07-29T15:04:28;5.85;;;2.40;;
9324;SDS011;4701;51.566;6.776;2022-07-29T15:06:30;5.78;;;2.40;;
9324;SDS011;4701;51.566;6.776;2022-07-29T15:08:32;4.20;;;2.90;;
9324;SDS011;4701;51.566;6.776;2022-07-29T15:10:35;7.18;;;3.13;;
9324;SDS011;4701;51.566;6.776;2022-07-29T15:12:37;3.70;;;2.90;;
9324;SDS011;4701;51.566;6.776;2022-07-29T15:14:39;5.40;;;2.78;;
9324;SDS011;4701;51.566;6.776;2022-07-29T15:16:41;4.78;;;2.55;;
9324;SDS011;4701;51.566;6.776;2022-07-29T15:18:43;6.10;;;2.75;;
9324;SDS011;4701;51.566;6.776;2022-07-29T15:20:44;5.38;;;2.67;;
9324;SDS011;4701;51.566;6.776;2022-07-29T15:22:46;7.55;;;2.92;;
9324;SDS011;4701;51.566;6.776;2022-07-29T15:24:49;6.20;;;3.40;;
9324;SDS011;4701;51.566;6.776;2022-07-29T15:26:53;5.97;;;2.97;;
9324;SDS011;4701;51.566;6.776;2022-07-29T15:28:55;5.00;;;2.97;;
9324;SDS011;4701;51.566;6.776;2022-07-29T15:30:57;4.28;;;2.70;;
9324;SDS011;4701;51.566;6.776;2022-07-29T15:32:59;6.22;;;3.35;;
9324;SDS011;4701;51.566;6.776;2022-07-29T15:35:02;7.95;;;2.70;;
9324;SDS011;4701;51.566;6.776;2022-07-29T15:37:05;5.60;;;3.15;;
9324;SDS011;4701;51.566;6.776;2022-07-29T15:39:07;5.53;;;2.78;;
9324;SDS011;4701;51.566;6.776;2022-07-29T15:41:13;4.55;;;3.25;;
9324;SDS011;4701;51.566;6.776;2022-07-29T15:43:16;4.72;;;3.13;;
9324;SDS011;4701;51.566;6.776;2022-07-29T15:45:18;13.00;;;5.60;;
9324;SDS011;4701;51.566;6.776;2022-07-29T15:47:20;7.32;;;3.75;;
9324;SDS011;4701;51.566;6.776;2022-07-29T15:49:21;5.80;;;2.92;;
9324;SDS011;4701;51.566;6.776;2022-07-29T15:51:22;5.97;;;3.65;;
9324;SDS011;4701;51.566;6.776;2022-07-29T15:53:24;3.88;;;2.83;;
9324;SDS011;4701;51.566;6.776;2022-07-29T15:55:29;5.10;;;2.63;;
9324;SDS011;4701;51.566;6.776;2022-07-29T15:57:30;7.78;;;3.00;;
9324;SDS011;4701;51.566;6.776;2022-07-29T15:59:34;3.85;;;2.50;;
9324;SDS011;4701;51.566;6.776;2022-07-29T16:01:35;7.70;;;3.42;;
9324;SDS011;4701;51.566;6.776;2022-07-29T16:03:37;6.07;;;2.78;;
9324;SDS011;4701;51.566;6.776;2022-07-29T16:05:39;5.28;;;3.60;;
9324;SDS011;4701;51.566;6.776;2022-07-29T16:07:41;5.85;;;3.40;;
9324;SDS011;4701;51.566;6.776;2022-07-29T16:09:44;6.18;;;2.90;;
9324;SDS011;4701;51.566;6.776;2022-07-29T16:11:47;5.80;;;3.47;;
9324;SDS011;4701;51.566;6.776;2022-07-29T16:13:50;8.35;;;3.60;;
9324;SDS011;4701;51.566;6.776;2022-07-29T16:15:53;5.68;;;3.28;;
9324;SDS011;4701;51.566;6.776;2022-07-29T16:17:55;9.70;;;4.10;;
9324;SDS011;4701;51.566;6.776;2022-07-29T16:19:57;8.75;;;4.43;;
9324;SDS011;4701;51.566;6.776;2022-07-29T16:21:59;7.65;;;4.13;;
9324;SDS011;4701;51.566;6.776;2022-07-29T16:24:00;5.85;;;4.22;;
9324;SDS011;4701;51.566;6.776;2022-07-29T16:26:03;7.63;;;3.35;;
9324;SDS011;4701;51.566;6.776;2022-07-29T16:28:04;9.90;;;3.67;;
9324;SDS011;4701;51.566;6.776;2022-07-29T16:30:08;6.03;;;4.13;;
9324;SDS011;4701;51.566;6.776;2022-07-29T16:32:11;9.48;;;4.65;;
9324;SDS011;4701;51.566;6.776;2022-07-29T16:34:13;8.25;;;4.22;;
9324;SDS011;4701;51.566;6.776;2022-07-29T16:36:15;8.60;;;3.78;;
9324;SDS011;4701;51.566;6.776;2022-07-29T16:38:20;6.88;;;3.25;;
9324;SDS011;4701;51.566;6.776;2022-07-29T16:40:22;4.22;;;2.92;;
9324;SDS011;4701;51.566;6.776;2022-07-29T16:42:24;5.40;;;2.83;;
9324;SDS011;4701;51.566;6.776;2022-07-29T16:44:26;5.03;;;3.08;;
9324;SDS011;4701;51.566;6.776;2022-07-29T16:46:28;5.97;;;2.85;;
9324;SDS011;4701;51.566;6.776;2022-07-29T16:48:31;3.78;;;2.72;;
9324;SDS011;4701;51.566;6.776;2022-07-29T16:50:33;5.10;;;3.20;;
9324;SDS011;4701;51.566;6.776;2022-07-29T16:52:35;5.43;;;2.90;;
9324;SDS011;4701;51.566;6.776;2022-07-29T16:54:37;7.22;;;3.45;;
9324;SDS011;4701;51.566;6.776;2022-07-29T16:56:40;4.07;;;2.70;;
9324;SDS011;4701;51.566;6.776;2022-07-29T16:58:41;6.95;;;2.80;;
9324;SDS011;4701;51.566;6.776;2022-07-29T17:00:43;4.72;;;2.60;;
9324;SDS011;4701;51.566;6.776;2022-07-29T17:02:45;7.47;;;2.90;;
9324;SDS011;4701;51.566;6.776;2022-07-29T17:04:49;6.55;;;2.88;;
9324;SDS011;4701;51.566;6.776;2022-07-29T17:06:51;5.43;;;2.70;;
9324;SDS011;4701;51.566;6.776;2022-07-29T17:08:53;4.13;;;2.45;;
9324;SDS011;4701;51.566;6.776;2022-07-29T17:10:55;6.10;;;2.60;;
9324;SDS011;4701;51.566;6.776;2022-07-29T17:12:56;3.40;;;2.10;;
9324;SDS011;4701;51.566;6.776;2022-07-29T17:14:59;5.85;;;2.60;;
9324;SDS011;4701;51.566;6.776;2022-07-29T17:17:00;6.53;;;2.30;;
9324;SDS011;4701;51.566;6.776;2022-07-29T17:19:03;4.93;;;2.38;;
9324;SDS011;4701;51.566;6.776;2022-07-29T17:21:06;3.60;;;2.58;;
9324;SDS011;4701;51.566;6.776;2022-07-29T17:23:08;4.93;;;2.30;;
9324;SDS011;4701;51.566;6.776;2022-07-29T17:25:10;3.60;;;2.42;;
9324;SDS011;4701;51.566;6.776;2022-07-29T17:27:12;6.00;;;2.58;;
9324;SDS011;4701;51.566;6.776;2022-07-29T17:29:15;5.40;;;2.20;;
9324;SDS011;4701;51.566;6.776;2022-07-29T17:31:17;6.68;;;2.45;;
9324;SDS011;4701;51.566;6.776;2022-07-29T17:33:19;5.63;;;2.38;;
9324;SDS011;4701;51.566;6.776;2022-07-29T17:35:21;4.10;;;2.20;;
9324;SDS011;4701;51.566;6.776;2022-07-29T17:37:42;4.13;;;2.33;;
9324;SDS011;4701;51.566;6.776;2022-07-29T17:39:43;4.18;;;2.10;;
9324;SDS011;4701;51.566;6.776;2022-07-29T17:41:46;3.45;;;2.20;;
9324;SDS011;4701;51.566;6.776;2022-07-29T17:43:48;4.25;;;2.42;;
9324;SDS011;4701;51.566;6.776;2022-07-29T17:45:50;5.30;;;2.60;;
9324;SDS011;4701;51.566;6.776;2022-07-29T17:47:51;5.72;;;2.38;;
9324;SDS011;4701;51.566;6.776;2022-07-29T17:49:53;7.70;;;3.17;;
9324;SDS011;4701;51.566;6.776;2022-07-29T17:51:55;6.32;;;3.30;;
9324;SDS011;4701;51.566;6.776;2022-07-29T17:53:58;6.15;;;2.83;;
9324;SDS011;4701;51.566;6.776;2022-07-29T17:56:00;5.22;;;2.60;;
9324;SDS011;4701;51.566;6.776;2022-07-29T17:58:03;8.23;;;6.22;;